createdAt,value
2018-10-07T00:03:38.436Z,68.20
2018-10-07T00:07:42.169Z,68.60
2018-10-07T00:11:46.089Z,68.20
2018-10-07T00:15:49.828Z,68.40
2018-10-07T00:19:53.567Z,70.70
2018-10-07T00:23:57.280Z,68.30
2018-10-07T00:28:01.045Z,68.70
2018-10-07T00:32:09.947Z,68.20
2018-10-07T00:36:13.729Z,68.10
2018-10-07T00:40:17.464Z,68.90
2018-10-07T00:44:21.269Z,68.80
2018-10-07T00:48:25.131Z,69.40
2018-10-07T00:52:28.841Z,69.40
2018-10-07T00:56:32.629Z,69.90
2018-10-07T01:00:36.377Z,69.20
2018-10-07T01:04:40.082Z,69.00
2018-10-07T01:08:43.809Z,70.60
2018-10-07T01:12:47.534Z,71.70
2018-10-07T01:16:51.246Z,70.90
2018-10-07T01:20:55.143Z,70.30
2018-10-07T01:24:58.957Z,72.10
2018-10-07T01:29:02.687Z,72.20
2018-10-07T01:33:06.453Z,73.80
2018-10-07T01:37:10.228Z,73.90
2018-10-07T01:41:13.929Z,73.70
2018-10-07T01:45:17.898Z,73.00
2018-10-07T01:49:21.799Z,72.70
2018-10-07T01:53:25.530Z,73.60
2018-10-07T01:57:29.401Z,72.40
2018-10-07T02:01:33.083Z,73.30
2018-10-07T02:05:37.154Z,72.80
2018-10-07T02:09:41.033Z,72.70
2018-10-07T02:13:44.759Z,73.00
2018-10-07T02:17:48.485Z,72.60
2018-10-07T02:21:52.184Z,73.20
2018-10-07T02:25:55.988Z,73.20
2018-10-07T02:29:59.748Z,73.40
2018-10-07T02:34:03.502Z,73.40
2018-10-07T02:38:07.367Z,72.80
2018-10-07T02:42:11.116Z,73.40
2018-10-07T02:46:14.843Z,72.60
2018-10-07T02:50:21.164Z,73.80
2018-10-07T02:54:26.014Z,74.10
2018-10-07T02:58:30.196Z,73.20
2018-10-07T03:02:33.933Z,73.20
2018-10-07T03:06:37.654Z,72.90
2018-10-07T03:10:41.457Z,72.60
2018-10-07T03:14:45.157Z,73.70
2018-10-07T03:18:48.857Z,72.50
2018-10-07T03:22:52.719Z,73.20
2018-10-07T03:26:56.485Z,74.20
2018-10-07T03:31:00.248Z,74.50
2018-10-07T03:35:04.097Z,75.10
2018-10-07T03:39:08.274Z,75.00
2018-10-07T03:43:12.073Z,74.50
2018-10-07T03:47:15.781Z,75.50
2018-10-07T03:51:19.504Z,75.80
2018-10-07T03:55:23.267Z,74.20
2018-10-07T03:59:27.001Z,74.10
2018-10-07T04:03:30.760Z,73.70
2018-10-07T04:07:34.559Z,73.50
2018-10-07T04:11:38.482Z,73.10
2018-10-07T04:15:42.245Z,72.90
2018-10-07T04:19:45.981Z,72.90
2018-10-07T04:23:49.702Z,72.60
2018-10-07T04:27:53.413Z,72.30
2018-10-07T04:31:57.321Z,72.10
2018-10-07T04:36:01.101Z,72.20
2018-10-07T04:40:04.929Z,72.00
2018-10-07T04:44:08.766Z,72.10
2018-10-07T04:48:12.443Z,71.90
2018-10-07T04:52:16.145Z,72.00
2018-10-07T04:56:19.922Z,71.70
2018-10-07T05:00:23.684Z,72.00
2018-10-07T05:04:27.441Z,71.40
2018-10-07T05:08:31.226Z,71.70
2018-10-07T05:12:35.081Z,71.80
2018-10-07T05:16:54.000Z,71.60
2018-10-07T05:20:57.756Z,70.90
2018-10-07T05:25:01.565Z,71.90
2018-10-07T05:29:05.350Z,71.90
2018-10-07T05:33:09.086Z,71.90
2018-10-07T05:37:12.821Z,71.90
2018-10-07T05:41:16.522Z,72.00
2018-10-07T05:45:20.264Z,71.90
2018-10-07T05:49:23.934Z,72.20
2018-10-07T05:53:27.665Z,71.90
2018-10-07T05:57:31.479Z,71.60
2018-10-07T06:01:38.885Z,71.30
2018-10-07T06:05:42.694Z,71.70
2018-10-07T06:09:46.502Z,71.30
2018-10-07T06:13:50.189Z,72.50
2018-10-07T06:17:53.986Z,72.30
2018-10-07T06:21:57.732Z,71.90
2018-10-07T06:26:01.525Z,71.60
2018-10-07T06:30:05.884Z,71.20
2018-10-07T06:34:09.620Z,71.10
2018-10-07T06:38:14.242Z,71.40
2018-10-07T06:42:17.984Z,71.10
2018-10-07T06:46:21.702Z,71.00
2018-10-07T06:50:25.424Z,71.10
2018-10-07T06:54:29.234Z,71.20
2018-10-07T06:58:32.962Z,70.90
2018-10-07T07:02:36.936Z,70.70
2018-10-07T07:06:40.694Z,70.20
2018-10-07T07:10:44.521Z,70.80
2018-10-07T07:14:48.220Z,71.00
2018-10-07T07:18:51.990Z,70.80
2018-10-07T07:22:55.898Z,70.80
2018-10-07T07:26:59.634Z,70.90
2018-10-07T07:31:03.379Z,70.70
2018-10-07T07:35:07.130Z,70.90
2018-10-07T07:39:10.871Z,70.60
2018-10-07T07:43:14.614Z,70.50
2018-10-07T07:47:18.362Z,70.40
2018-10-07T07:51:22.096Z,70.30
2018-10-07T07:55:25.841Z,70.30
2018-10-07T07:59:29.564Z,70.20
2018-10-07T08:03:33.299Z,70.20
2018-10-07T08:07:37.031Z,70.30
2018-10-07T08:11:40.801Z,70.10
2018-10-07T08:15:44.499Z,70.10
2018-10-07T08:19:48.265Z,70.00
2018-10-07T08:23:52.010Z,70.00
2018-10-07T08:27:55.756Z,69.90
2018-10-07T08:31:59.515Z,69.70
2018-10-07T08:36:03.298Z,69.70
2018-10-07T08:40:07.092Z,69.30
2018-10-07T08:44:10.824Z,69.20
2018-10-07T08:48:14.611Z,69.30
2018-10-07T08:52:18.339Z,69.00
2018-10-07T08:56:22.080Z,68.80
2018-10-07T09:00:25.954Z,69.10
2018-10-07T09:04:29.672Z,68.80
2018-10-07T09:08:33.389Z,69.40
2018-10-07T09:12:37.204Z,68.60
2018-10-07T09:16:40.955Z,68.60
2018-10-07T09:20:44.802Z,67.90
2018-10-07T09:24:48.545Z,68.10
2018-10-07T09:28:52.373Z,68.30
2018-10-07T09:32:56.216Z,68.20
2018-10-07T09:36:59.885Z,67.60
2018-10-07T09:41:03.683Z,67.80
2018-10-07T09:45:07.839Z,68.00
2018-10-07T09:49:11.777Z,67.20
2018-10-07T09:53:15.508Z,67.40
2018-10-07T09:57:19.241Z,67.00
2018-10-07T10:01:23.054Z,66.70
2018-10-07T10:05:26.818Z,65.60
2018-10-07T10:09:30.653Z,65.80
2018-10-07T10:13:34.406Z,66.10
2018-10-07T10:17:38.339Z,65.20
2018-10-07T10:21:46.554Z,65.00
2018-10-07T10:25:58.517Z,65.80
2018-10-07T10:30:22.408Z,65.80
2018-10-07T10:34:28.206Z,66.20
2018-10-07T10:38:40.139Z,66.00
2018-10-07T10:42:47.354Z,65.90
2018-10-07T10:47:03.594Z,65.60
2018-10-07T10:52:18.011Z,64.90
2018-10-07T10:56:25.421Z,64.00
2018-10-07T11:00:55.463Z,64.00
2018-10-07T11:05:15.803Z,64.10
2018-10-07T11:09:30.810Z,63.80
2018-10-07T11:13:42.878Z,64.00
2018-10-07T11:20:03.599Z,63.30
2018-10-07T11:24:15.058Z,64.30
2018-10-07T11:28:47.629Z,63.10
2018-10-07T11:34:01.868Z,63.40
2018-10-07T11:38:39.980Z,62.30
2018-10-07T11:43:20.470Z,63.30
2018-10-07T11:47:58.392Z,61.80
2018-10-07T11:52:18.124Z,63.50
2018-10-07T11:56:21.861Z,63.20
2018-10-07T12:00:25.594Z,63.60
2018-10-07T12:04:29.367Z,63.20
2018-10-07T12:08:33.081Z,63.10
2018-10-07T12:12:36.790Z,63.40
2018-10-07T12:16:40.540Z,64.20
2018-10-07T12:20:44.288Z,65.00
2018-10-07T12:24:47.982Z,64.70
2018-10-07T12:28:51.657Z,64.30
2018-10-07T12:32:55.418Z,65.00
2018-10-07T12:36:59.203Z,62.70
2018-10-07T12:41:03.989Z,63.80
2018-10-07T12:45:08.851Z,63.70
2018-10-07T12:49:13.891Z,61.70
2018-10-07T12:53:17.829Z,61.00
2018-10-07T12:57:21.591Z,61.90
2018-10-07T13:01:25.313Z,60.30
2018-10-07T13:05:29.134Z,62.00
2018-10-07T13:09:32.924Z,61.80
2018-10-07T13:13:36.651Z,61.00
2018-10-07T13:17:40.358Z,60.50
2018-10-07T13:21:44.098Z,61.30
2018-10-07T13:25:47.768Z,61.80
2018-10-07T13:29:51.526Z,60.70
2018-10-07T13:33:55.381Z,61.10
2018-10-07T13:37:59.111Z,60.20
2018-10-07T13:42:02.837Z,60.60
2018-10-07T13:46:06.543Z,60.00
2018-10-07T13:50:10.289Z,60.60
2018-10-07T13:54:14.081Z,58.50
2018-10-07T13:58:17.838Z,59.30
2018-10-07T14:02:21.529Z,57.40
2018-10-07T14:06:25.268Z,59.10
2018-10-07T14:10:29.001Z,60.10
2018-10-07T14:14:32.817Z,59.10
2018-10-07T14:18:36.638Z,58.40
2018-10-07T14:22:40.446Z,60.10
2018-10-07T14:26:44.189Z,58.50
2018-10-07T14:30:47.997Z,59.60
2018-10-07T14:34:51.766Z,59.00
2018-10-07T14:38:55.552Z,59.50
2018-10-07T14:42:59.256Z,58.60
2018-10-07T14:47:02.982Z,58.40
2018-10-07T14:51:06.750Z,58.80
2018-10-07T14:55:10.507Z,59.50
2018-10-07T14:59:14.232Z,59.30
2018-10-07T15:03:17.965Z,59.80
2018-10-07T15:07:21.716Z,59.30
2018-10-07T15:11:25.464Z,59.10
2018-10-07T15:15:29.198Z,58.90
2018-10-07T15:19:32.905Z,58.70
2018-10-07T15:23:36.660Z,58.00
2018-10-07T15:27:40.404Z,58.70
2018-10-07T15:31:44.142Z,57.80
2018-10-07T15:35:47.933Z,58.50
2018-10-07T15:39:51.653Z,59.20
2018-10-07T15:43:55.390Z,59.50
2018-10-07T15:47:59.138Z,57.50
2018-10-07T15:52:02.885Z,58.70
2018-10-07T15:56:06.609Z,59.10
2018-10-07T16:00:10.338Z,59.20
2018-10-07T16:04:14.100Z,59.10
2018-10-07T16:08:17.795Z,59.40
2018-10-07T16:12:21.538Z,59.40
2018-10-07T16:16:25.250Z,59.50
2018-10-07T16:20:29.018Z,59.50
2018-10-07T16:24:32.700Z,59.50
2018-10-07T16:28:36.444Z,59.60
2018-10-07T16:32:40.165Z,59.60
2018-10-07T16:36:43.977Z,59.70
2018-10-07T16:40:47.713Z,59.70
2018-10-07T16:44:51.421Z,59.70
2018-10-07T16:48:55.177Z,59.70
2018-10-07T16:52:58.950Z,59.70
2018-10-07T16:57:02.682Z,59.10
2018-10-07T17:01:06.492Z,59.70
2018-10-07T17:05:10.214Z,59.70
2018-10-07T17:09:14.022Z,59.70
2018-10-07T17:13:17.770Z,59.90
2018-10-07T17:17:21.516Z,59.90
2018-10-07T17:21:25.268Z,59.90
2018-10-07T17:25:28.973Z,59.90
2018-10-07T17:29:32.749Z,59.90
2018-10-07T17:33:36.457Z,59.90
2018-10-07T17:37:40.256Z,59.90
2018-10-07T17:41:44.041Z,60.00
2018-10-07T17:45:47.787Z,59.90
2018-10-07T17:49:51.533Z,60.00
2018-10-07T17:53:55.249Z,60.10
2018-10-07T17:57:59.005Z,60.20
2018-10-07T18:02:02.798Z,60.20
2018-10-07T18:06:06.607Z,60.30
2018-10-07T18:10:10.395Z,60.30
2018-10-07T18:14:14.195Z,60.30
2018-10-07T18:18:17.908Z,60.40
2018-10-07T18:22:21.630Z,60.40
2018-10-07T18:26:25.367Z,60.50
2018-10-07T18:30:29.231Z,60.50
2018-10-07T18:34:33.035Z,60.60
2018-10-07T18:38:36.893Z,60.60
2018-10-07T18:42:40.607Z,60.60
2018-10-07T18:46:44.410Z,60.60
2018-10-07T18:50:48.209Z,60.70
2018-10-07T18:54:51.947Z,60.70
2018-10-07T18:58:55.707Z,60.70
2018-10-07T19:02:59.613Z,60.80
2018-10-07T19:07:03.217Z,60.90
2018-10-07T19:11:06.996Z,61.00
2018-10-07T19:15:10.706Z,61.00
2018-10-07T19:19:14.431Z,61.10
2018-10-07T19:23:18.191Z,61.10
2018-10-07T19:27:22.024Z,61.10
2018-10-07T19:31:25.753Z,61.20
2018-10-07T19:35:29.498Z,61.20
2018-10-07T19:39:33.236Z,61.30
2018-10-07T19:43:37.021Z,60.40
2018-10-07T19:47:40.753Z,61.30
2018-10-07T19:51:44.490Z,61.30
2018-10-07T19:55:48.223Z,61.40
2018-10-07T19:59:51.956Z,61.40
2018-10-07T20:03:55.670Z,61.50
2018-10-07T20:07:59.410Z,61.50
2018-10-07T20:12:03.103Z,61.60
2018-10-07T20:16:06.851Z,61.60
2018-10-07T20:20:10.634Z,61.60
2018-10-07T20:24:14.361Z,62.20
2018-10-07T20:28:18.045Z,61.70
2018-10-07T20:32:21.837Z,61.70
2018-10-07T20:36:25.602Z,61.70
2018-10-07T20:40:29.535Z,61.00
2018-10-07T20:44:33.162Z,61.90
2018-10-07T20:48:36.846Z,61.90
2018-10-07T20:52:40.586Z,61.90
2018-10-07T20:56:44.356Z,61.90
2018-10-07T21:00:48.086Z,62.00
2018-10-07T21:04:51.886Z,61.90
2018-10-07T21:08:55.675Z,62.20
2018-10-07T21:12:59.397Z,62.10
2018-10-07T21:17:03.228Z,62.10
2018-10-07T21:21:07.022Z,62.20
2018-10-07T21:25:10.747Z,62.30
2018-10-07T21:29:14.523Z,62.30
2018-10-07T21:33:18.306Z,62.30
2018-10-07T21:37:22.100Z,62.40
2018-10-07T21:41:25.832Z,62.40
2018-10-07T21:45:29.712Z,62.30
2018-10-07T21:49:33.424Z,62.40
2018-10-07T21:53:37.156Z,62.30
2018-10-07T21:57:40.872Z,62.30
2018-10-07T22:01:44.597Z,62.40
2018-10-07T22:05:48.320Z,62.40
2018-10-07T22:09:52.029Z,62.50
2018-10-07T22:13:55.743Z,62.50
2018-10-07T22:17:59.485Z,62.60
2018-10-07T22:22:03.208Z,62.50
2018-10-07T22:26:07.342Z,62.40
2018-10-07T22:30:11.085Z,62.50
2018-10-07T22:34:14.857Z,62.50
2018-10-07T22:38:18.703Z,62.70
2018-10-07T22:42:22.437Z,62.50
2018-10-07T22:46:26.162Z,62.60
2018-10-07T22:50:29.878Z,62.60
2018-10-07T22:54:33.659Z,62.70
2018-10-07T22:58:37.359Z,62.90
2018-10-07T23:02:41.074Z,62.90
2018-10-07T23:06:44.829Z,62.80
2018-10-07T23:10:48.787Z,62.80
2018-10-07T23:14:52.496Z,62.90
2018-10-07T23:18:56.229Z,62.80
2018-10-07T23:22:59.941Z,62.80
2018-10-07T23:27:03.670Z,62.80
2018-10-07T23:31:07.352Z,62.90
2018-10-07T23:35:11.091Z,63.00
2018-10-07T23:39:14.820Z,62.80
2018-10-07T23:43:18.560Z,62.80
2018-10-07T23:47:22.286Z,62.90
2018-10-07T23:51:25.987Z,63.00
2018-10-07T23:55:29.722Z,63.00
2018-10-07T23:59:33.441Z,63.10
